Time;durP1;ratioP1;P1;durP2;ratioP2;P2;SDS_P1;SDS_P2;PMS_P1;PMS_P2;Temp;Humidity;BMP_temperature;BMP_pressure;BME280_temperature;BME280_humidity;BME280_pressure;Samples;Min_cycle;Max_cycle;Signal;HPM_P1;HPM_P2
2022/05/04 00:02:13;;;;;;;0.30;0.30;;;11.00;99.90;11.10;101808.00;;;;5035691;28;20187;-74
2022/05/04 00:04:42;;;;;;;2.13;2.03;;;11.10;99.90;10.90;101807.00;;;;5035634;28;20171;-73
2022/05/04 00:07:07;;;;;;;2.57;2.10;;;11.10;99.90;11.10;101807.00;;;;5034138;28;20522;-73
2022/05/04 00:09:33;;;;;;;2.13;2.10;;;11.20;99.90;10.60;101744.00;;;;5036113;28;20189;-73
2022/05/04 00:11:59;;;;;;;0.40;0.40;;;11.10;99.90;10.70;101802.00;;;;5035795;28;20696;-73
2022/05/04 00:14:29;;;;;;;0.80;0.80;;;11.00;99.90;10.60;101795.00;;;;5035715;28;20273;-73
2022/05/04 00:16:55;;;;;;;0.30;0.30;;;11.00;99.90;10.70;101796.00;;;;5035647;28;20267;-73
2022/05/04 00:19:21;;;;;;;0.40;0.40;;;10.90;99.90;10.80;101762.00;;;;5050542;28;20179;-73
2022/05/04 00:21:47;;;;;;;0.40;0.40;;;11.00;99.90;11.00;101803.00;;;;5034748;28;20550;-73
2022/05/04 00:24:14;;;;;;;0.50;0.50;;;11.00;99.90;10.80;101796.00;;;;5035345;28;20178;-73
2022/05/04 00:26:40;;;;;;;0.40;0.40;;;11.10;99.90;10.60;101794.00;;;;5050762;28;20194;-73
2022/05/04 00:29:06;;;;;;;1.63;1.53;;;10.90;99.90;10.90;101782.00;;;;5035340;28;20170;-73
2022/05/04 00:31:34;;;;;;;0.40;0.40;;;11.00;99.90;10.60;101795.00;;;;5050459;28;20300;-73
2022/05/04 00:34:08;;;;;;;0.40;0.40;;;10.90;99.90;10.70;101798.00;;;;5034792;28;20535;-73
2022/05/04 00:36:39;;;;;;;0.50;0.50;;;10.90;99.90;10.90;101797.00;;;;5050479;28;20261;-73
2022/05/04 00:39:05;;;;;;;0.30;0.30;;;10.90;99.90;10.60;101798.00;;;;5050606;28;20190;-73
2022/05/04 00:41:36;;;;;;;0.97;0.97;;;10.80;99.90;10.10;101792.00;;;;5035222;28;20573;-73
2022/05/04 00:44:02;;;;;;;0.40;0.40;;;10.70;99.90;10.60;101806.00;;;;5035113;28;20190;-73
2022/05/04 00:46:36;;;;;;;0.40;0.40;;;10.80;99.90;10.50;101811.00;;;;5050170;28;20187;-73
2022/05/04 00:49:09;;;;;;;0.40;0.40;;;10.70;99.90;10.70;101787.00;;;;5051159;28;20541;-73
2022/05/04 00:51:43;;;;;;;0.40;0.40;;;10.80;99.90;10.90;101794.00;;;;5034994;28;20206;-73
2022/05/04 00:54:21;;;;;;;0.40;0.40;;;11.00;99.90;11.00;101803.00;;;;5049457;28;20183;-73
2022/05/04 00:56:55;;;;;;;1.37;1.27;;;11.00;99.90;10.70;101797.00;;;;5049123;28;20690;-73
2022/05/04 00:59:27;;;;;;;1.17;1.00;;;11.00;99.90;10.50;101800.00;;;;5033686;28;20178;-73
2022/05/04 01:02:02;;;;;;;0.40;0.40;;;10.90;99.90;10.10;101801.00;;;;5049840;28;20198;-73
2022/05/04 01:04:28;;;;;;;0.40;0.40;;;10.70;99.90;10.00;101804.00;;;;5033397;28;20656;-73
2022/05/04 01:06:54;;;;;;;0.30;0.30;;;10.60;99.90;9.90;101794.00;;;;5034310;28;20633;-73
2022/05/04 01:09:26;;;;;;;0.60;0.60;;;10.50;99.90;10.10;101802.00;;;;5049790;28;20179;-73
2022/05/04 01:11:51;;;;;;;0.40;0.40;;;10.40;99.90;9.80;101800.00;;;;5050001;28;20265;-73
2022/05/04 01:14:25;;;;;;;0.30;0.30;;;10.30;99.90;10.40;101787.00;;;;5049842;28;20179;-73
2022/05/04 01:16:56;;;;;;;0.70;0.70;;;10.50;99.90;10.70;101777.00;;;;5034035;28;20266;-73
2022/05/04 01:19:27;;;;;;;0.40;0.40;;;10.70;99.90;11.10;101799.00;;;;5049941;28;20171;-73
2022/05/04 01:21:59;;;;;;;0.50;0.50;;;11.00;99.90;10.70;101793.00;;;;5034070;28;20190;-74
2022/05/04 01:24:30;;;;;;;1.80;1.13;;;11.00;99.90;10.50;101779.00;;;;5034177;28;20183;-73
2022/05/04 01:26:58;;;;;;;0.40;0.40;;;10.90;99.90;10.60;101769.00;;;;5049858;28;20217;-73
2022/05/04 01:29:29;;;;;;;1.93;1.83;;;10.90;99.90;11.00;101783.00;;;;5049535;28;20559;-75
2022/05/04 01:32:01;;;;;;;0.53;0.53;;;11.00;99.90;11.00;101787.00;;;;5032488;28;20211;-73
2022/05/04 01:34:32;;;;;;;0.40;0.40;;;11.10;99.90;10.90;101780.00;;;;5049337;28;20186;-73
2022/05/04 01:37:05;;;;;;;1.23;1.23;;;11.00;99.90;10.40;101743.00;;;;5049359;28;20209;-73
2022/05/04 01:39:34;;;;;;;1.90;1.80;;;10.70;99.90;10.00;101786.00;;;;5049196;28;20183;-73
2022/05/04 01:42:06;;;;;;;0.40;0.40;;;10.50;99.90;10.60;101733.00;;;;5049191;28;20257;-73
2022/05/04 01:44:43;;;;;;;0.40;0.40;;;10.70;99.90;10.70;101782.00;;;;5032368;28;20635;-73
2022/05/04 01:47:17;;;;;;;1.33;0.80;;;10.80;99.90;10.60;101784.00;;;;5032208;28;20313;-73
2022/05/04 01:49:43;;;;;;;0.40;0.40;;;10.80;99.90;10.50;101784.00;;;;5049495;28;20163;-73
2022/05/04 01:52:14;;;;;;;0.40;0.40;;;10.70;99.90;10.40;101777.00;;;;5049363;28;20556;-73
2022/05/04 01:54:48;;;;;;;0.47;0.47;;;10.70;99.90;10.90;101795.00;;;;5049215;28;20183;-73
2022/05/04 01:57:20;;;;;;;0.60;0.60;;;10.90;99.90;10.70;101780.00;;;;5048456;28;20186;-73
2022/05/04 01:59:51;;;;;;;0.50;0.50;;;10.90;99.90;10.80;101784.00;;;;5049182;28;20183;-74
2022/05/04 02:02:23;;;;;;;0.40;0.40;;;10.90;99.90;10.00;101759.00;;;;5033692;28;20214;-74
2022/05/04 02:04:54;;;;;;;0.53;0.53;;;10.60;99.90;10.00;101785.00;;;;5048188;28;20693;-74
2022/05/04 02:07:25;;;;;;;0.90;0.90;;;10.60;99.90;9.40;101784.00;;;;5044973;28;20214;-72
2022/05/04 02:09:57;;;;;;;0.30;0.30;;;10.30;99.90;9.50;101773.00;;;;5012615;28;20642;-73
2022/05/04 02:12:28;;;;;;;0.40;0.40;;;10.00;99.90;9.80;101774.00;;;;5012649;28;20199;-73
2022/05/04 02:14:58;;;;;;;1.13;1.13;;;10.10;99.90;10.20;101784.00;;;;5012360;28;20599;-73
2022/05/04 02:17:30;;;;;;;0.40;0.40;;;10.30;99.90;10.10;101791.00;;;;5012418;28;20175;-73
2022/05/04 02:19:58;;;;;;;0.40;0.40;;;10.40;99.90;10.30;101787.00;;;;5012494;28;20218;-72
2022/05/04 02:22:24;;;;;;;0.70;0.70;;;10.50;99.90;10.90;101769.00;;;;5013309;28;20223;-73
2022/05/04 02:24:53;;;;;;;0.40;0.40;;;10.70;99.90;10.70;101774.00;;;;5012546;28;20187;-73
2022/05/04 02:27:24;;;;;;;0.40;0.40;;;10.80;99.90;10.30;101781.00;;;;5013741;28;20215;-73
2022/05/04 02:29:58;;;;;;;0.40;0.40;;;10.60;99.90;10.60;101773.00;;;;5013365;28;20540;-74
2022/05/04 02:32:25;;;;;;;0.40;0.40;;;10.70;99.90;10.80;101763.00;;;;5027552;28;20310;-74
2022/05/04 02:37:55;;;;;;;0.40;0.40;;;10.90;99.90;10.60;101770.00;;;;5019251;28;20584;-74
2022/05/04 02:40:26;;;;;;;0.50;0.50;;;10.90;99.90;10.70;101767.00;;;;5048618;28;20186;-74
2022/05/04 02:42:53;;;;;;;2.40;0.80;;;10.90;99.90;10.60;101756.00;;;;5048773;28;20569;-75
2022/05/04 02:45:19;;;;;;;0.40;0.40;;;10.70;99.90;10.90;101711.00;;;;5048347;28;20216;-75
2022/05/04 02:47:45;;;;;;;0.40;0.40;;;10.90;99.90;10.50;101743.00;;;;5048605;28;20179;-74
2022/05/04 02:50:11;;;;;;;0.80;0.80;;;10.80;99.90;10.90;101715.00;;;;5048653;28;20211;-74
2022/05/04 02:52:37;;;;;;;0.40;0.40;;;11.00;99.90;10.90;101697.00;;;;5048462;28;20614;-73
2022/05/04 02:55:04;;;;;;;0.93;0.93;;;11.00;99.90;10.80;101738.00;;;;5048551;28;20186;-73
2022/05/04 02:57:33;;;;;;;0.40;0.40;;;11.00;99.90;10.20;101744.00;;;;5048064;28;20190;-73
2022/05/04 03:00:05;;;;;;;1.53;1.43;;;10.70;99.90;10.70;101740.00;;;;5032862;28;20183;-75
2022/05/04 03:02:31;;;;;;;0.40;0.40;;;10.80;99.90;10.90;101743.00;;;;5048324;28;20198;-73
2022/05/04 03:05:08;;;;;;;0.40;0.40;;;10.90;99.90;10.60;101744.00;;;;5048244;28;20222;-74
2022/05/04 03:07:35;;;;;;;0.40;0.40;;;10.90;99.90;10.70;101741.00;;;;5031595;28;20178;-74
2022/05/04 03:10:01;;;;;;;0.40;0.40;;;10.80;99.90;10.30;101743.00;;;;5032722;28;20182;-73
2022/05/04 03:12:27;;;;;;;0.40;0.40;;;10.60;99.90;10.30;101746.00;;;;5031219;28;20551;-73
2022/05/04 03:14:55;;;;;;;0.40;0.40;;;10.50;99.90;10.10;101743.00;;;;5032995;28;20225;-73
2022/05/04 03:17:22;;;;;;;0.80;0.77;;;10.30;99.90;10.40;101752.00;;;;5032438;28;20187;-73
2022/05/04 03:19:47;;;;;;;0.67;0.67;;;10.40;99.90;10.40;101741.00;;;;5051450;28;20187;-73
2022/05/04 03:22:16;;;;;;;0.60;0.60;;;10.50;99.90;10.20;101739.00;;;;5036882;28;20192;-73
2022/05/04 03:24:42;;;;;;;1.60;0.80;;;10.50;99.90;10.20;101737.00;;;;5036354;28;20553;-73
2022/05/04 03:27:15;;;;;;;2.10;2.00;;;10.30;99.90;10.50;101703.00;;;;5036342;28;20182;-73
2022/05/04 03:29:44;;;;;;;1.07;1.07;;;10.50;99.90;9.90;101747.00;;;;5036354;28;20235;-73
2022/05/04 03:32:12;;;;;;;0.83;0.83;;;10.20;99.90;10.30;101690.00;;;;5051707;28;20212;-73
2022/05/04 03:34:38;;;;;;;0.50;0.50;;;10.40;99.90;10.20;101732.00;;;;5051531;28;20195;-72
2022/05/04 03:37:08;;;;;;;0.50;0.50;;;10.40;99.90;9.40;101746.00;;;;5036322;28;20174;-72
2022/05/04 03:39:39;;;;;;;0.60;0.60;;;10.10;99.90;9.70;101736.00;;;;5035813;28;20177;-73
2022/05/04 03:42:12;;;;;;;0.40;0.40;;;9.90;99.90;9.50;101747.00;;;;5036061;28;20539;-72
2022/05/04 03:44:43;;;;;;;0.50;0.50;;;9.70;99.90;9.30;101740.00;;;;5036250;28;20641;-72
2022/05/04 03:47:09;;;;;;;0.50;0.50;;;9.50;99.90;9.10;101740.00;;;;5036217;28;20172;-71
2022/05/04 03:49:37;;;;;;;0.50;0.50;;;9.40;99.90;8.90;101732.00;;;;5035982;28;20606;-71
2022/05/04 03:52:03;;;;;;;0.50;0.50;;;9.20;99.90;8.80;101741.00;;;;5051778;28;20186;-71
2022/05/04 03:54:36;;;;;;;0.53;0.53;;;9.00;99.90;9.00;101734.00;;;;5051664;28;20173;-72
2022/05/04 03:57:02;;;;;;;0.50;0.50;;;9.00;99.90;8.80;101740.00;;;;5051111;28;20176;-72
2022/05/04 03:59:31;;;;;;;1.90;1.80;;;9.00;99.90;8.60;101701.00;;;;5051363;28;20179;-72
2022/05/04 04:01:57;;;;;;;0.90;0.90;;;8.90;99.90;8.70;101740.00;;;;5051341;28;20200;-72
2022/05/04 04:04:23;;;;;;;0.60;0.60;;;8.80;99.90;8.70;101736.00;;;;5051198;28;20184;-72
2022/05/04 04:06:54;;;;;;;1.07;1.07;;;8.80;99.90;8.90;101732.00;;;;5035831;28;20660;-72
2022/05/04 04:09:20;;;;;;;0.50;0.50;;;8.90;99.90;8.90;101741.00;;;;5033931;28;20188;-71
2022/05/04 04:11:51;;;;;;;0.50;0.50;;;9.00;99.90;8.70;101737.00;;;;5050594;28;20211;-71
2022/05/04 04:14:17;;;;;;;0.50;0.50;;;9.00;99.90;9.10;101744.00;;;;5035312;28;20270;-71
2022/05/04 04:16:48;;;;;;;0.50;0.50;;;9.10;99.90;9.10;101723.00;;;;5015807;28;20227;-71
2022/05/04 04:19:17;;;;;;;0.50;0.50;;;9.30;99.90;8.80;101743.00;;;;5014460;28;20202;-71
2022/05/04 04:21:52;;;;;;;0.50;0.50;;;9.10;99.90;8.50;101705.00;;;;5015635;28;20176;-71
2022/05/04 04:24:20;;;;;;;0.60;0.60;;;8.90;99.90;8.70;101743.00;;;;5014213;28;20318;-71
2022/05/04 04:26:46;;;;;;;0.60;0.60;;;8.90;99.90;8.60;101749.00;;;;5014455;28;20210;-71
2022/05/04 04:29:12;;;;;;;0.50;0.50;;;8.90;99.90;8.80;101754.00;;;;5014256;28;20267;-71
2022/05/04 04:31:37;;;;;;;0.60;0.60;;;8.90;99.90;9.00;101745.00;;;;5013863;28;20208;-71
2022/05/04 04:34:07;;;;;;;0.60;0.60;;;9.00;99.90;9.30;101755.00;;;;5014615;28;20198;-71
2022/05/04 04:36:34;;;;;;;0.50;0.50;;;9.20;99.90;8.50;101752.00;;;;5013587;28;20173;-72
2022/05/04 04:39:00;;;;;;;0.63;0.63;;;9.10;99.90;9.00;101743.00;;;;5023953;28;20633;-73
2022/05/04 04:41:27;;;;;;;0.50;0.50;;;9.10;99.90;9.20;101747.00;;;;5034810;28;20202;-72
2022/05/04 04:43:55;;;;;;;0.50;0.50;;;9.20;99.90;9.30;101743.00;;;;5050671;28;20173;-72
2022/05/04 04:46:24;;;;;;;0.50;0.50;;;9.30;99.90;9.60;101758.00;;;;5049785;28;20628;-72
2022/05/04 04:48:52;;;;;;;0.50;0.50;;;9.60;99.90;9.80;101764.00;;;;5050317;28;20161;-72
2022/05/04 04:51:23;;;;;;;1.33;1.33;;;9.70;99.90;9.50;101752.00;;;;5050362;28;20625;-72
2022/05/04 04:53:54;;;;;;;1.07;1.03;;;9.70;99.90;9.90;101752.00;;;;5050163;28;20268;-72
2022/05/04 04:56:23;;;;;;;1.03;1.03;;;9.90;99.90;9.90;101757.00;;;;5050235;28;20534;-72
2022/05/04 04:58:48;;;;;;;0.57;0.57;;;10.00;99.90;10.10;101757.00;;;;5033688;28;20188;-72
2022/05/04 05:01:17;;;;;;;0.40;0.40;;;10.20;99.90;10.60;101752.00;;;;5034674;28;20194;-72
2022/05/04 05:03:45;;;;;;;0.53;0.53;;;10.50;99.90;11.40;101701.00;;;;5035064;28;20171;-72
2022/05/04 05:06:12;;;;;;;0.40;0.40;;;11.10;99.90;11.60;101754.00;;;;5050174;28;20194;-72
2022/05/04 05:08:41;;;;;;;0.33;0.33;;;11.60;99.90;12.60;101748.00;;;;5049657;28;20177;-70
2022/05/04 05:11:13;;;;;;;0.30;0.30;;;12.20;99.90;13.40;101768.00;;;;5049212;28;20179;-71
2022/05/04 05:16:06;;;;;;;0.30;0.30;;;13.00;99.90;13.90;101773.00;;;;5034639;28;20630;-72
2022/05/04 05:16:29;;;;;;;1.03;1.03;;;13.50;99.90;14.60;101787.00;;;;5034621;28;20537;-72
2022/05/04 05:18:58;;;;;;;0.30;0.30;;;14.10;99.90;15.30;101808.00;;;;5049734;28;20174;-72
2022/05/04 05:21:24;;;;;;;0.30;0.30;;;14.70;99.90;14.30;101805.00;;;;5033599;28;20180;-72
2022/05/04 05:23:50;;;;;;;0.20;0.20;;;14.70;99.90;15.70;101818.00;;;;5049665;28;20721;-72
2022/05/04 05:26:15;;;;;;;0.20;0.20;;;15.10;99.90;16.10;101850.00;;;;5034188;28;20189;-71
2022/05/04 05:28:41;;;;;;;0.20;0.20;;;15.60;99.90;16.70;101860.00;;;;5033061;28;20190;-72
2022/05/04 05:31:07;;;;;;;0.20;0.20;;;16.00;99.90;17.00;101872.00;;;;5049180;28;20198;-72
2022/05/04 05:33:33;;;;;;;0.20;0.20;;;16.40;99.90;17.10;101885.00;;;;5049367;28;20173;-72
2022/05/04 05:36:01;;;;;;;0.20;0.20;;;16.60;99.90;17.90;101880.00;;;;5034142;28;20192;-72
2022/05/04 05:38:27;;;;;;;0.10;0.10;;;17.10;99.90;18.70;101919.00;;;;5048635;28;20626;-72
2022/05/04 05:40:53;;;;;;;0.40;0.40;;;17.80;99.90;19.10;101929.00;;;;5033405;28;20183;-72
2022/05/04 05:43:19;;;;;;;0.20;0.20;;;18.20;99.90;18.60;101921.00;;;;5033640;28;20612;-72
2022/05/04 05:45:45;;;;;;;0.20;0.20;;;18.20;99.90;19.00;101930.00;;;;5049494;28;20223;-72
2022/05/04 05:48:11;;;;;;;0.77;0.77;;;18.40;99.90;18.70;101928.00;;;;5033866;28;20178;-72
2022/05/04 05:50:37;;;;;;;5.93;1.17;;;18.30;99.90;18.70;101939.00;;;;5049633;28;20518;-73
2022/05/04 05:53:03;;;;;;;0.20;0.20;;;18.20;99.90;19.00;101945.00;;;;5049002;28;20537;-72
2022/05/04 05:55:30;;;;;;;0.30;0.30;;;18.50;99.90;19.40;101949.00;;;;5049436;28;20183;-72
2022/05/04 05:57:56;;;;;;;0.10;0.10;;;18.80;99.90;19.80;101957.00;;;;5049397;28;20198;-73
2022/05/04 06:00:33;;;;;;;0.53;0.53;;;19.20;99.90;20.30;101956.00;;;;5049186;28;20287;-72
2022/05/04 06:03:01;;;;;;;2.67;2.53;;;19.50;99.90;20.50;101973.00;;;;5033331;28;20266;-73
2022/05/04 06:05:28;;;;;;;0.17;0.17;;;19.80;99.90;20.40;101981.00;;;;5033307;28;20179;-74
2022/05/04 06:07:58;;;;;;;0.15;0.15;;;19.70;99.90;20.00;101985.00;;;;5032530;28;20249;-72
2022/05/04 06:10:35;;;;;;;0.10;0.10;;;19.60;99.90;19.50;101982.00;;;;5048125;28;20181;-72
2022/05/04 06:13:01;;;;;;;0.75;0.75;;;19.40;99.90;20.90;101980.00;;;;5048895;28;20676;-72
2022/05/04 06:15:27;;;;;;;0.93;0.93;;;19.90;99.90;21.40;101986.00;;;;5033228;28;20175;-73
2022/05/04 06:17:53;;;;;;;0.20;0.20;;;20.40;99.90;22.00;101976.00;;;;5048670;28;20174;-72
2022/05/04 06:20:23;;;;;;;0.15;0.15;;;21.00;99.90;22.90;101957.00;;;;5047943;28;20225;-72
2022/05/04 06:22:50;;;;;;;0.17;0.17;;;21.60;99.90;22.50;101943.00;;;;5031994;28;20249;-72
2022/05/04 06:25:16;;;;;;;0.65;0.65;;;21.80;99.90;22.70;101880.00;;;;5048831;28;20182;-72
2022/05/04 06:27:44;;;;;;;0.60;0.60;;;22.10;99.90;23.90;101891.00;;;;5042695;28;20180;-71
2022/05/04 06:36:02;;;;;;;0.10;0.10;;;22.70;99.90;23.60;101880.00;;;;5013006;28;20656;-71
2022/05/04 06:38:28;;;;;;;1.00;1.00;;;22.70;99.90;19.10;101872.00;;;;5012302;28;20209;-71
2022/05/04 06:40:55;;;;;;;0.20;0.20;;;21.60;99.90;20.00;101921.00;;;;5033057;28;20684;-70
2022/05/04 06:43:20;;;;;;;0.17;0.17;;;20.20;99.90;21.30;101908.00;;;;5033373;28;20190;-71
2022/05/04 06:45:46;;;;;;;9.45;0.75;;;20.80;99.90;22.60;101909.00;;;;5033405;28;20270;-70
2022/05/04 06:48:12;;;;;;;0.82;0.60;;;21.60;99.90;22.40;101910.00;;;;5033027;28;20652;-72
2022/05/04 06:50:39;;;;;;;0.10;0.10;;;21.70;99.90;23.10;101898.00;;;;5048279;28;20253;-71
2022/05/04 06:53:05;;;;;;;0.10;0.10;;;22.30;99.90;23.40;101874.00;;;;5033761;28;20178;-71
2022/05/04 06:55:31;;;;;;;0.63;0.63;;;22.70;99.90;21.00;101911.00;;;;5052722;28;20201;-72
2022/05/04 06:57:57;;;;;;;0.30;0.30;;;22.00;98.80;22.80;101877.00;;;;5052310;28;20166;-72
2022/05/04 07:00:25;;;;;;;0.80;0.73;;;21.90;99.90;22.70;101908.00;;;;5037226;28;20171;-71
2022/05/04 07:02:51;;;;;;;0.85;0.85;;;22.40;99.00;23.40;101890.00;;;;5036787;28;20210;-72
2022/05/04 07:05:17;;;;;;;0.90;0.90;;;22.60;99.30;21.70;101910.00;;;;5052077;28;20179;-72
2022/05/04 07:07:46;;;;;;;0.47;0.47;;;22.70;98.00;17.90;101946.00;;;;5036717;28;20179;-71
2022/05/04 07:10:11;;;;;;;0.10;0.10;;;19.80;99.90;19.40;101934.00;;;;5052354;28;20210;-71
2022/05/04 07:12:37;;;;;;;0.30;0.30;;;19.70;99.90;19.00;101925.00;;;;5036825;28;20186;-73
2022/05/04 07:15:09;;;;;;;2.35;1.58;;;18.60;99.90;16.70;101935.00;;;;5036634;28;20185;-73
2022/05/04 07:17:35;;;;;;;1.90;1.48;;;18.20;99.90;19.10;101942.00;;;;5052315;28;20173;-71
2022/05/04 07:20:08;;;;;;;0.25;0.25;;;18.70;99.90;19.00;101927.00;;;;5051993;28;20183;-73
2022/05/04 07:22:35;;;;;;;0.10;0.10;;;19.30;99.90;22.20;101917.00;;;;5051753;28;20206;-73
2022/05/04 07:25:03;;;;;;;0.22;0.22;;;20.80;99.90;19.80;101934.00;;;;5052151;28;20179;-73
2022/05/04 07:27:32;;;;;;;0.10;0.10;;;20.30;99.90;22.20;101900.00;;;;5052134;28;20189;-73
2022/05/04 07:29:58;;;;;;;0.10;0.10;;;21.10;99.90;21.70;101913.00;;;;5051554;28;20183;-73
2022/05/04 07:32:27;;;;;;;3.25;1.58;;;21.40;99.90;15.50;101949.00;;;;5051795;28;20644;-75
2022/05/04 07:34:56;;;;;;;0.20;0.20;;;17.90;99.90;16.10;101960.00;;;;5051127;28;20179;-74
2022/05/04 07:37:22;;;;;;;0.75;0.75;;;17.00;99.90;17.90;101941.00;;;;5044061;28;20192;-75
2022/05/04 07:42:44;;;;;;;0.10;0.10;;;17.70;99.90;19.20;101891.00;;;;5048439;28;20705;-74
2022/05/04 07:45:15;;;;;;;0.20;0.20;;;18.30;99.90;19.80;101936.00;;;;5027926;28;20183;-73
2022/05/04 07:47:44;;;;;;;0.10;0.10;;;19.60;99.90;21.10;101878.00;;;;5016081;28;20195;-74
2022/05/04 07:50:18;;;;;;;0.10;0.10;;;20.70;99.90;22.50;101914.00;;;;5022497;28;20187;-74
2022/05/04 07:52:47;;;;;;;0.77;0.77;;;21.50;99.90;22.40;101901.00;;;;5047903;28;20190;-75
2022/05/04 07:55:13;;;;;;;0.65;0.65;;;22.10;99.40;21.40;101920.00;;;;5015128;28;20198;-74
2022/05/04 07:57:47;;;;;;;0.65;0.65;;;21.40;99.90;20.60;101880.00;;;;5016248;28;20627;-75
2022/05/04 08:05:50;;;;;;;0.20;0.20;;;19.90;99.90;23.20;101887.00;;;;5015410;28;20241;-75
2022/05/04 08:08:16;;;;;;;0.10;0.10;;;21.90;99.90;22.10;101926.00;;;;5020396;28;20187;-72
2022/05/04 08:10:42;;;;;;;0.52;0.52;;;22.10;99.50;23.20;101916.00;;;;5023149;28;20193;-76
2022/05/04 08:13:14;;;;;;;0.10;0.10;;;22.60;99.10;24.40;101884.00;;;;5035413;28;20206;-76
2022/05/04 08:15:40;;;;;;;0.28;0.28;;;23.60;97.50;22.30;101913.00;;;;5049432;28;20181;-74
2022/05/04 08:18:07;;;;;;;0.20;0.20;;;22.50;97.70;19.80;101930.00;;;;5027080;28;20195;-74
2022/05/04 08:20:42;;;;;;;0.10;0.10;;;21.20;98.40;21.00;101929.00;;;;5014483;28;20187;-73
2022/05/04 08:23:13;;;;;;;0.73;0.73;;;20.80;99.60;22.00;101889.00;;;;5047481;28;20276;-71
2022/05/04 08:25:39;;;;;;;0.43;0.40;;;21.50;99.40;23.50;101915.00;;;;5017951;28;20188;-73
2022/05/04 08:28:05;;;;;;;0.10;0.10;;;22.70;98.10;23.20;101908.00;;;;5028638;28;20559;-74
2022/05/04 08:30:36;;;;;;;0.10;0.10;;;23.00;97.10;24.00;101886.00;;;;5034074;28;20254;-75
2022/05/04 08:33:06;;;;;;;7.78;2.70;;;23.50;96.80;20.10;101899.00;;;;5033847;28;20651;-73
2022/05/04 08:35:32;;;;;;;0.10;0.10;;;21.80;96.70;20.70;101915.00;;;;5035277;28;20175;-75
2022/05/04 08:38:01;;;;;;;0.82;0.82;;;20.90;98.90;23.10;101904.00;;;;5035397;28;20209;-74
2022/05/04 08:40:29;;;;;;;0.65;0.55;;;22.00;98.50;17.40;101946.00;;;;5017402;28;20202;-79
2022/05/04 08:43:00;;;;;;;1.90;1.73;;;19.60;99.70;20.50;101933.00;;;;5050315;28;20202;-80
2022/05/04 08:45:25;;;;;;;0.10;0.10;;;20.00;99.90;19.00;101936.00;;;;5034960;28;20269;-78
2022/05/04 08:47:52;;;;;;;0.98;0.93;;;18.90;99.90;20.90;101925.00;;;;5049932;28;20207;-77
2022/05/04 08:50:22;;;;;;;1.38;1.27;;;19.80;99.90;21.30;101923.00;;;;5050430;28;20336;-76
2022/05/04 08:52:53;;;;;;;0.65;0.65;;;20.80;99.60;21.20;101937.00;;;;5034709;28;20190;-78
2022/05/04 08:55:24;;;;;;;0.40;0.40;;;20.90;99.10;21.20;101901.00;;;;5049580;28;20178;-77
2022/05/04 08:57:55;;;;;;;0.10;0.10;;;21.20;98.70;21.70;101918.00;;;;5050212;28;20222;-80
2022/05/04 09:00:27;;;;;;;0.22;0.22;;;21.30;98.90;22.50;101870.00;;;;5050153;28;20186;-81
2022/05/04 09:02:55;;;;;;;0.10;0.10;;;21.90;98.10;21.80;101911.00;;;;5050347;28;20288;-83
2022/05/04 09:05:29;;;;;;;0.20;0.20;;;21.70;98.50;23.00;101915.00;;;;5050168;28;20626;-81
2022/05/04 09:07:57;;;;;;;0.38;0.38;;;22.40;97.30;23.10;101917.00;;;;5049872;28;20178;-82
2022/05/04 09:10:27;;;;;;;1.38;1.15;;;22.70;97.10;22.90;101880.00;;;;5049845;28;20210;-86
2022/05/04 09:12:55;;;;;;;2.83;2.58;;;22.80;96.40;21.30;101917.00;;;;5033151;28;20217;-82
2022/05/04 09:15:26;;;;;;;3.70;1.52;;;22.10;96.50;20.20;101909.00;;;;5033997;28;20175;-82
2022/05/04 09:18:13;;;;;;;0.20;0.20;;;20.90;97.80;21.30;101929.00;;;;5037343;28;20196;-84
2022/05/04 09:20:47;;;;;;;1.77;1.67;;;21.00;98.70;20.60;101940.00;;;;5006101;28;20191;-68
2022/05/04 09:23:23;;;;;;;0.50;0.50;;;20.80;98.80;20.20;101934.00;;;;5034092;28;20234;-87
2022/05/04 09:25:56;;;;;;;0.82;0.82;;;20.40;99.10;20.40;101943.00;;;;5033143;28;20183;-86
2022/05/04 09:28:24;;;;;;;1.58;1.48;;;20.20;99.20;18.60;101935.00;;;;5033487;28;20179;-84
2022/05/04 09:31:03;;;;;;;1.30;1.30;;;19.60;99.80;17.70;101960.00;;;;5032401;28;20171;-83
2022/05/04 09:33:35;;;;;;;0.20;0.20;;;18.40;99.90;18.70;101956.00;;;;5033507;28;20175;-79
2022/05/04 09:36:03;;;;;;;1.27;1.27;;;18.60;99.90;20.10;101941.00;;;;5033151;28;20183;-79
2022/05/04 09:46:55;;;;;;;0.10;0.10;;;19.50;99.90;21.40;101920.00;;;;5041137;28;20175;-70
2022/05/04 09:49:30;;;;;;;0.57;0.57;;;20.70;99.90;19.70;101913.00;;;;5012971;28;20577;-71
2022/05/04 09:51:56;;;;;;;2.05;1.95;;;20.60;99.90;18.40;101927.00;;;;5045790;28;20167;-72
2022/05/04 09:54:27;;;;;;;1.70;1.60;;;19.40;99.90;17.80;101925.00;;;;5045796;28;20214;-77
2022/05/04 09:57:04;;;;;;;0.65;0.65;;;18.10;99.90;21.30;101915.00;;;;5045678;28;20631;-73
2022/05/04 09:59:34;;;;;;;0.30;0.30;;;19.90;99.90;18.80;101932.00;;;;5029282;28;20179;-74
2022/05/04 10:02:09;;;;;;;0.10;0.10;;;20.10;99.90;21.40;101913.00;;;;5029748;28;20210;-74
2022/05/04 10:04:38;;;;;;;0.30;0.30;;;20.50;99.90;22.70;101895.00;;;;5011921;28;20547;-71
2022/05/04 10:07:09;;;;;;;6.93;5.15;;;21.90;99.60;21.20;101905.00;;;;5024607;28;20190;-68
2022/05/04 10:09:38;;;;;;;0.15;0.15;;;21.80;98.50;22.70;101893.00;;;;5030897;28;20202;-68
2022/05/04 10:12:08;;;;;;;0.50;0.50;;;22.20;98.60;23.80;101846.00;;;;5048856;28;20190;-71
2022/05/04 10:14:34;;;;;;;0.68;0.65;;;23.00;97.90;23.20;101881.00;;;;5015327;28;20236;-71
2022/05/04 10:17:11;;;;;;;0.50;0.50;;;23.00;96.90;23.20;101883.00;;;;5031703;28;20172;-70
2022/05/04 10:19:52;;;;;;;0.35;0.35;;;23.00;97.10;24.00;101871.00;;;;5015735;28;20721;-70
2022/05/04 10:33:09;;;;;;;0.88;0.55;;;20.90;97.40;20.30;101840.00;;;;5114225;27;1296080;-73
2022/05/04 10:35:38;;;;;;;1.05;0.95;;;20.50;98.10;20.60;101906.00;;;;5130496;28;20187;-72
2022/05/04 10:38:17;;;;;;;0.65;0.65;;;20.60;98.20;20.90;101913.00;;;;5130187;28;20211;-71
2022/05/04 10:41:00;;;;;;;2.20;1.83;;;20.60;98.50;18.70;101918.00;;;;5123672;27;20183;-72
2022/05/04 10:43:45;;;;;;;3.72;2.97;;;19.20;99.60;18.60;101922.00;;;;5109555;28;20172;-71
2022/05/04 10:46:21;;;;;;;12.13;3.90;;;18.80;99.90;17.70;101921.00;;;;5109407;28;20171;-72
2022/05/04 10:48:56;;;;;;;0.63;0.63;;;17.90;99.90;19.00;101797.00;;;;5109384;28;20260;-73
2022/05/04 10:51:36;;;;;;;0.55;0.55;;;18.50;99.90;20.70;101900.00;;;;5091856;28;20735;-71
2022/05/04 10:54:17;;;;;;;0.55;0.50;;;19.90;99.90;19.30;101898.00;;;;5108314;28;20234;-70
2022/05/04 10:56:50;;;;;;;0.40;0.40;;;20.00;99.90;21.10;101901.00;;;;5092259;28;20187;-71
2022/05/04 10:59:36;;;;;;;0.82;0.82;;;20.60;99.90;22.40;101884.00;;;;5092589;28;20251;-72
2022/05/04 11:02:11;;;;;;;2.15;1.42;;;21.80;98.90;21.50;101890.00;;;;5108985;28;20205;-72
2022/05/04 11:04:37;;;;;;;0.40;0.40;;;21.20;99.20;20.80;101893.00;;;;5091988;28;20281;-74
2022/05/04 11:07:05;;;;;;;0.32;0.32;;;21.10;98.80;21.80;101876.00;;;;5110754;28;20184;-75
2022/05/04 11:09:42;;;;;;;1.88;1.65;;;21.40;98.90;19.50;101870.00;;;;5120636;28;20200;-75
2022/05/04 11:12:14;;;;;;;2.38;2.17;;;20.70;99.00;18.60;101906.00;;;;5109637;28;20196;-74
2022/05/04 11:14:40;;;;;;;1.55;1.55;;;19.80;99.70;19.60;101896.00;;;;5110460;28;20604;-75
2022/05/04 11:17:12;;;;;;;0.30;0.30;;;19.60;99.90;21.60;101835.00;;;;5109226;28;20680;-75
2022/05/04 11:19:46;;;;;;;0.65;0.65;;;20.70;99.90;22.60;101863.00;;;;5114018;28;20267;-75
2022/05/04 11:22:14;;;;;;;1.85;1.80;;;22.10;98.70;23.60;101817.00;;;;5110015;28;20177;-75
2022/05/04 11:24:43;;;;;;;2.88;1.98;;;22.90;98.30;21.70;101863.00;;;;5111283;28;20188;-75
2022/05/04 11:27:11;;;;;;;1.15;0.98;;;22.20;98.10;22.30;101861.00;;;;5116212;28;20619;-75
2022/05/04 11:29:37;;;;;;;0.10;0.10;;;22.30;97.80;22.90;101855.00;;;;5108977;28;20183;-75
2022/05/04 11:32:05;;;;;;;0.17;0.17;;;22.70;97.80;22.70;101861.00;;;;5108612;28;20213;-75
2022/05/04 11:34:37;;;;;;;0.40;0.40;;;22.60;96.80;23.10;101855.00;;;;5111852;28;20179;-75
2022/05/04 11:37:11;;;;;;;0.47;0.47;;;22.70;97.10;23.00;101846.00;;;;5102529;28;20184;-75